Time;durP1;ratioP1;P1;durP2;ratioP2;P2;SDS_P1;SDS_P2;PMS_P1;PMS_P2;Temp;Humidity;BMP_temperature;BMP_pressure;BME280_temperature;BME280_humidity;BME280_pressure;Samples;Min_cycle;Max_cycle;Signal;HPM_P1;HPM_P2
2022/10/30 00:00:12;;;;;;;;;19.00;16.00;;;;;20.01;53.58;101220.25;4939060;28;47098;-64
2022/10/30 00:02:37;;;;;;;;;21.75;16.50;;;;;19.97;53.32;101215.06;4941791;28;45306;-64
2022/10/30 00:05:02;;;;;;;;;18.25;17.25;;;;;19.94;53.15;101217.88;4932489;28;45560;-64
2022/10/30 00:07:28;;;;;;;;;18.75;16.25;;;;;19.90;53.37;101208.28;4941606;28;46631;-64
2022/10/30 00:09:53;;;;;;;;;19.50;13.75;;;;;19.88;53.67;101201.28;4941272;28;45361;-64
2022/10/30 00:12:18;;;;;;;;;16.75;14.50;;;;;19.81;53.73;101204.19;4940290;28;45311;-64
2022/10/30 00:14:44;;;;;;;;;8.00;8.00;;;;;19.80;53.08;101196.28;4941402;28;45374;-64
2022/10/30 00:17:09;;;;;;;;;14.75;11.75;;;;;19.77;53.17;101202.63;4941311;28;45304;-64
2022/10/30 00:19:34;;;;;;;;;15.00;13.00;;;;;19.73;53.22;101213.47;4939914;28;46024;-64
2022/10/30 00:22:01;;;;;;;;;16.25;12.25;;;;;19.71;53.79;101218.91;4941729;28;45306;-64
2022/10/30 00:24:27;;;;;;;;;17.75;15.50;;;;;19.68;53.20;101210.16;4941312;28;45567;-64
2022/10/30 00:26:53;;;;;;;;;13.75;12.50;;;;;19.64;53.43;101207.63;4940728;28;46156;-64
2022/10/30 00:29:18;;;;;;;;;16.50;13.25;;;;;19.60;53.30;101208.69;4941173;28;45526;-64
2022/10/30 00:31:43;;;;;;;;;16.75;14.25;;;;;19.61;53.72;101207.78;4939942;28;45311;-65
2022/10/30 00:34:09;;;;;;;;;16.75;13.25;;;;;19.58;53.63;101209.69;4941243;28;45378;-64
2022/10/30 00:36:34;;;;;;;;;14.50;14.25;;;;;19.53;53.63;101203.72;4941133;28;46054;-65
2022/10/30 00:38:59;;;;;;;;;17.00;13.75;;;;;19.53;53.78;101209.91;4939470;28;56531;-64
2022/10/30 00:41:25;;;;;;;;;10.75;10.00;;;;;19.43;53.76;101185.47;4941137;28;45248;-64
2022/10/30 00:43:52;;;;;;;;;13.75;13.00;;;;;19.48;53.82;101199.47;4939712;28;45258;-64
2022/10/30 00:46:25;;;;;;;;;17.50;12.50;;;;;19.43;53.90;101203.25;4941191;28;46140;-64
2022/10/30 00:48:58;;;;;;;;;15.25;13.50;;;;;19.42;53.92;101217.50;4928027;28;45333;-64
2022/10/30 00:51:24;;;;;;;;;15.25;13.50;;;;;19.40;53.47;101204.25;4942804;28;45248;-65
2022/10/30 00:53:51;;;;;;;;;17.00;14.00;;;;;19.41;53.34;101208.66;4944593;28;45294;-64
2022/10/30 00:56:20;;;;;;;;;15.75;13.75;;;;;19.38;53.41;101200.78;4943730;28;45620;-64
2022/10/30 00:58:52;;;;;;;;;14.50;12.50;;;;;19.36;53.43;101194.66;4931181;28;45401;-64
2022/10/30 01:01:23;;;;;;;;;15.75;14.00;;;;;19.31;53.96;101189.53;4944686;28;45494;-64
2022/10/30 01:03:54;;;;;;;;;14.25;11.75;;;;;19.31;53.91;101202.84;4928687;28;45224;-64
2022/10/30 01:06:21;;;;;;;;;13.75;11.25;;;;;19.29;53.77;101210.03;4939132;28;46216;-64
2022/10/30 01:08:47;;;;;;;;;14.50;12.00;;;;;19.28;53.90;101208.34;4943993;28;45362;-64
2022/10/30 01:11:12;;;;;;;;;12.50;10.50;;;;;19.27;53.75;101214.59;4943712;28;45303;-64
2022/10/30 01:13:41;;;;;;;;;11.00;11.00;;;;;19.25;53.65;101218.25;4942866;28;45256;-63
2022/10/30 01:16:26;;;;;;;;;14.00;12.75;;;;;19.25;54.01;101221.78;4943873;28;45368;-64
2022/10/30 01:19:07;;;;;;;;;13.25;10.50;;;;;19.21;53.46;101220.19;4943913;28;45690;-64
2022/10/30 01:21:58;;;;;;;;;16.75;13.00;;;;;19.20;53.48;101209.59;4930919;28;45319;-64
2022/10/30 01:24:43;;;;;;;;;15.25;10.75;;;;;19.17;53.99;101219.44;4940518;28;45388;-63
2022/10/30 01:27:15;;;;;;;;;11.50;10.75;;;;;19.15;53.79;101212.44;4942160;28;47459;-64
2022/10/30 01:29:43;;;;;;;;;14.00;13.00;;;;;19.14;53.96;101208.94;4943974;28;45287;-64
2022/10/30 01:32:21;;;;;;;;;11.50;11.50;;;;;19.14;53.79;101214.25;4943562;28;45361;-64
2022/10/30 01:35:24;;;;;;;;;14.25;13.00;;;;;19.12;53.91;101210.78;4942597;28;45619;-64
2022/10/30 01:38:03;;;;;;;;;13.25;10.50;;;;;19.10;53.90;101212.63;4931640;28;47223;-63
2022/10/30 01:40:28;;;;;;;;;14.00;11.25;;;;;19.07;53.99;101204.78;4943405;28;45266;-63
2022/10/30 01:42:58;;;;;;;;;17.25;14.00;;;;;19.08;53.79;101205.63;4943913;28;45401;-63
2022/10/30 01:45:35;;;;;;;;;13.25;12.50;;;;;19.07;53.58;101212.78;4943714;28;45465;-63
2022/10/30 01:48:35;;;;;;;;;11.25;11.00;;;;;19.04;53.64;101217.38;4943453;28;45328;-64
2022/10/30 01:51:03;;;;;;;;;14.50;14.00;;;;;19.02;53.83;101214.78;4934557;28;45305;-63
2022/10/30 01:53:50;;;;;;;;;1.75;1.50;;;;;19.00;53.74;101219.28;4943712;28;45354;-64
2022/10/30 01:56:33;;;;;;;;;16.50;14.00;;;;;18.96;54.11;101217.69;4943124;28;45330;-64
2022/10/30 01:59:04;;;;;;;;;15.75;14.75;;;;;18.94;54.08;101211.53;4931565;28;45271;-63
2022/10/30 02:01:34;;;;;;;;;14.50;11.00;;;;;18.92;53.96;101219.59;4943345;28;45200;-63
2022/10/30 02:04:00;;;;;;;;;16.00;13.75;;;;;18.90;54.41;101208.16;4938066;28;46103;-63
2022/10/30 02:06:25;;;;;;;;;17.75;13.00;;;;;18.89;53.75;101210.84;4939217;28;45262;-63
2022/10/30 02:08:55;;;;;;;;;11.00;11.00;;;;;18.86;54.01;101198.53;4943394;28;46324;-64
2022/10/30 02:11:21;;;;;;;;;13.50;12.75;;;;;18.85;54.14;101194.13;4942888;28;45387;-64
2022/10/30 02:13:47;;;;;;;;;15.25;13.25;;;;;18.84;53.88;101195.06;4943496;28;45238;-64
2022/10/30 02:16:13;;;;;;;;;16.25;13.75;;;;;18.83;54.16;101196.00;4942986;28;45514;-64
2022/10/30 02:18:39;;;;;;;;;17.25;15.00;;;;;18.80;54.09;101191.69;4943058;28;46118;-64
2022/10/30 02:21:05;;;;;;;;;16.25;13.25;;;;;18.78;54.19;101190.88;4942927;28;45348;-64
2022/10/30 02:23:31;;;;;;;;;17.50;13.75;;;;;18.77;54.36;101194.44;4942121;28;45354;-63
2022/10/30 02:25:57;;;;;;;;;12.25;12.25;;;;;18.80;54.01;101193.44;4942507;28;45460;-63
2022/10/30 02:28:22;;;;;;;;;12.75;12.00;;;;;18.78;54.05;101185.53;4941630;28;48423;-63
2022/10/30 02:30:47;;;;;;;;;16.75;13.00;;;;;18.78;54.46;101190.88;4942786;28;45466;-63
2022/10/30 02:33:13;;;;;;;;;17.75;13.25;;;;;18.76;54.36;101187.38;4943373;28;45447;-63
2022/10/30 02:35:38;;;;;;;;;14.25;13.50;;;;;18.77;54.47;101193.59;4942871;28;45194;-63
2022/10/30 02:38:03;;;;;;;;;16.75;14.50;;;;;18.76;54.04;101192.72;4942834;28;46046;-63
2022/10/30 02:40:29;;;;;;;;;15.50;14.25;;;;;18.77;54.69;101191.78;4942403;28;45195;-64
2022/10/30 02:42:54;;;;;;;;;14.00;13.25;;;;;18.68;54.23;101166.41;4943107;28;45312;-64
2022/10/30 02:45:20;;;;;;;;;14.75;14.00;;;;;18.75;54.25;101180.31;4942824;28;45258;-64
2022/10/30 02:47:45;;;;;;;;;15.00;13.75;;;;;18.73;54.58;101184.88;4942560;28;46404;-64
2022/10/30 02:50:11;;;;;;;;;18.50;14.50;;;;;18.73;54.67;101184.88;4942606;28;45299;-63
2022/10/30 02:52:36;;;;;;;;;14.25;14.25;;;;;18.72;54.50;101180.47;4942887;28;45298;-64
2022/10/30 02:55:02;;;;;;;;;10.00;9.50;;;;;18.73;54.50;101176.00;4925128;28;45243;-63
2022/10/30 02:57:27;;;;;;;;;16.50;12.00;;;;;18.72;54.22;101172.47;4934277;28;46246;-63
2022/10/30 02:59:52;;;;;;;;;10.25;9.50;;;;;18.73;54.35;101179.53;4937689;28;45251;-64
2022/10/30 03:02:18;;;;;;;;;12.25;11.75;;;;;18.72;54.35;101177.81;4942684;28;46112;-63
2022/10/30 03:04:43;;;;;;;;;18.50;15.50;;;;;18.72;54.32;101172.47;4933484;28;45418;-63
2022/10/30 03:07:08;;;;;;;;;12.00;12.00;;;;;18.71;54.34;101176.06;4942417;28;46125;-64
2022/10/30 03:09:33;;;;;;;;;16.75;14.00;;;;;18.73;54.57;101176.00;4942175;28;45371;-64
2022/10/30 03:11:59;;;;;;;;;14.25;13.00;;;;;18.71;54.31;101169.88;4942366;28;45447;-64
2022/10/30 03:14:24;;;;;;;;;15.00;14.75;;;;;18.70;54.78;101177.00;4941373;28;48962;-64
2022/10/30 03:16:51;;;;;;;;;17.25;13.00;;;;;18.68;54.59;101170.88;4942176;28;46105;-63
2022/10/30 03:19:17;;;;;;;;;13.75;13.00;;;;;18.67;54.43;101167.34;4942267;28;45520;-63
2022/10/30 03:21:42;;;;;;;;;16.00;13.75;;;;;18.67;54.27;101163.81;4942508;28;45468;-64
2022/10/30 03:24:07;;;;;;;;;14.75;12.25;;;;;18.65;54.72;101171.00;4940956;28;45371;-64
2022/10/30 03:26:33;;;;;;;;;14.00;14.00;;;;;18.63;54.50;101168.41;4941785;28;45310;-64
2022/10/30 03:28:58;;;;;;;;;12.75;12.75;;;;;18.62;54.69;101164.00;4942235;28;45263;-64
2022/10/30 03:31:23;;;;;;;;;17.25;15.25;;;;;18.61;54.78;101166.75;4942255;28;45175;-64
2022/10/30 03:33:48;;;;;;;;;18.50;13.25;;;;;18.58;54.73;101157.09;4942184;28;45673;-64
2022/10/30 03:36:14;;;;;;;;;12.75;11.75;;;;;18.56;54.47;101145.63;4942209;28;46188;-64
2022/10/30 03:38:40;;;;;;;;;17.75;14.00;;;;;18.54;54.77;101143.97;4941879;28;45172;-64
2022/10/30 03:41:06;;;;;;;;;16.25;14.25;;;;;18.50;54.45;101138.78;4942056;28;45437;-64
2022/10/30 03:43:31;;;;;;;;;15.75;15.75;;;;;18.47;54.72;101143.34;4940705;28;45266;-64
2022/10/30 03:45:57;;;;;;;;;20.25;14.75;;;;;18.45;54.91;101146.09;4942056;28;45248;-64
2022/10/30 03:48:24;;;;;;;;;15.50;13.50;;;;;18.44;54.77;101148.78;4941790;28;45279;-64
2022/10/30 03:50:58;;;;;;;;;16.00;13.00;;;;;18.42;54.91;101145.34;4942213;28;45412;-64
2022/10/30 03:53:25;;;;;;;;;14.50;13.75;;;;;18.40;54.49;101145.41;4941744;28;45399;-64
2022/10/30 03:56:01;;;;;;;;;19.75;15.00;;;;;18.39;54.51;101143.66;4941433;28;46290;-64
2022/10/30 03:58:27;;;;;;;;;14.75;14.75;;;;;18.37;54.64;101137.53;4928664;28;45382;-64
2022/10/30 04:00:53;;;;;;;;;15.50;12.00;;;;;18.32;54.66;101135.06;4942003;28;45301;-64
2022/10/30 04:03:19;;;;;;;;;15.00;13.00;;;;;18.32;54.74;101136.84;4941595;28;45531;-64
2022/10/30 04:05:44;;;;;;;;;17.00;14.25;;;;;18.29;54.68;101139.66;4932764;28;46285;-65
2022/10/30 04:08:12;;;;;;;;;15.00;13.25;;;;;18.26;54.91;101142.41;4941548;28;45232;-64
2022/10/30 04:10:44;;;;;;;;;19.00;13.50;;;;;18.24;55.41;101145.16;4941645;28;45246;-64
2022/10/30 04:13:11;;;;;;;;;15.50;13.25;;;;;18.22;54.91;101148.81;4941517;28;45322;-65
2022/10/30 04:15:36;;;;;;;;;18.00;13.50;;;;;18.21;55.00;101147.91;4941456;28;46224;-64
2022/10/30 04:18:02;;;;;;;;;11.50;10.75;;;;;18.20;55.03;101151.53;4941448;28;45160;-64
2022/10/30 04:20:28;;;;;;;;;17.50;14.75;;;;;18.18;54.92;101135.59;4941700;28;45288;-64
2022/10/30 04:23:02;;;;;;;;;14.50;12.50;;;;;18.19;54.85;101144.47;4941349;28;45437;-64
2022/10/30 04:25:28;;;;;;;;;15.00;15.00;;;;;18.17;55.22;101141.00;4942275;28;46921;-64
2022/10/30 04:27:54;;;;;;;;;14.75;13.00;;;;;18.14;55.06;101128.69;4947827;28;45421;-64
2022/10/30 04:30:21;;;;;;;;;15.25;11.50;;;;;18.13;55.19;101134.94;4947810;28;45428;-64
2022/10/30 04:32:48;;;;;;;;;14.00;13.00;;;;;18.11;54.79;101142.13;4947634;28;45437;-64
2022/10/30 04:35:15;;;;;;;;;14.00;12.75;;;;;18.10;54.87;101134.19;4947684;28;47370;-64
2022/10/30 04:37:40;;;;;;;;;5.75;5.50;;;;;18.09;55.25;101127.16;4947564;28;45248;-64
2022/10/30 04:40:06;;;;;;;;;11.75;10.50;;;;;18.07;54.99;101132.50;4947580;28;45268;-64
2022/10/30 04:42:32;;;;;;;;;18.00;14.75;;;;;17.98;55.27;101109.81;4947721;28;45243;-64
2022/10/30 04:44:57;;;;;;;;;14.50;14.25;;;;;18.02;55.22;101114.09;4947488;28;46009;-64
2022/10/30 04:47:22;;;;;;;;;15.50;13.50;;;;;18.01;54.97;101109.69;4947406;28;45492;-64
2022/10/30 04:49:48;;;;;;;;;14.75;11.50;;;;;18.01;55.03;101108.81;4947554;28;45221;-64
2022/10/30 04:52:13;;;;;;;;;13.75;12.50;;;;;17.97;54.86;101108.06;4947828;28;45192;-64
2022/10/30 04:54:38;;;;;;;;;13.00;10.25;;;;;17.95;55.01;101115.25;4945979;28;46946;-64
2022/10/30 04:57:04;;;;;;;;;10.00;9.75;;;;;17.95;55.25;101122.34;4942510;28;45453;-64
2022/10/30 04:59:30;;;;;;;;;13.75;11.50;;;;;17.95;54.96;101125.00;4940025;28;45334;-64
2022/10/30 05:01:55;;;;;;;;;13.25;12.25;;;;;17.91;55.24;101123.38;4947186;28;45664;-64
2022/10/30 05:04:20;;;;;;;;;11.75;11.00;;;;;17.91;55.38;101120.72;4939910;28;45441;-64
2022/10/30 05:06:46;;;;;;;;;14.75;14.50;;;;;17.91;55.22;101118.06;4946061;28;45381;-64
2022/10/30 05:09:11;;;;;;;;;9.25;8.75;;;;;17.87;55.33;101123.50;4947313;28;50335;-64
2022/10/30 05:11:36;;;;;;;;;15.75;12.25;;;;;17.90;55.07;101121.63;4946966;28;45323;-64
2022/10/30 05:14:01;;;;;;;;;16.00;12.25;;;;;17.89;55.17;101119.94;4947269;28;45500;-64
2022/10/30 05:16:27;;;;;;;;;13.50;11.50;;;;;17.76;55.01;101099.13;4947001;28;45372;-64
2022/10/30 05:18:52;;;;;;;;;14.50;11.50;;;;;17.86;55.36;101121.75;4947458;28;45314;-64
2022/10/30 05:21:17;;;;;;;;;14.00;11.75;;;;;17.84;55.28;101118.28;4946863;28;50130;-64
2022/10/30 05:23:43;;;;;;;;;11.50;8.00;;;;;17.82;55.05;101112.19;4947327;28;45900;-64
2022/10/30 05:26:08;;;;;;;;;14.75;13.25;;;;;17.80;55.29;101099.88;4946726;28;45252;-64
2022/10/30 05:28:33;;;;;;;;;14.50;12.50;;;;;17.76;55.34;101109.75;4947344;28;45151;-64
2022/10/30 05:30:59;;;;;;;;;15.25;13.00;;;;;17.78;55.00;101115.88;4946844;28;45545;-64
2022/10/30 05:33:24;;;;;;;;;10.50;10.25;;;;;17.73;55.38;101101.03;4947084;28;45349;-64
2022/10/30 05:35:49;;;;;;;;;13.00;11.25;;;;;17.74;55.33;101106.28;4947018;28;45180;-64
2022/10/30 05:38:15;;;;;;;;;17.75;11.50;;;;;17.74;55.02;101094.81;4943895;28;45274;-64
2022/10/30 05:40:40;;;;;;;;;15.00;14.00;;;;;17.72;55.54;101089.53;4943431;28;45228;-64
2022/10/30 05:43:06;;;;;;;;;13.00;10.75;;;;;17.71;55.49;101091.31;4943668;28;52241;-64
2022/10/30 05:45:32;;;;;;;;;15.75;13.50;;;;;17.68;55.30;101087.91;4943686;28;45222;-64
2022/10/30 05:47:59;;;;;;;;;17.00;13.50;;;;;17.73;55.41;101095.72;4943686;28;45203;-64
2022/10/30 05:50:25;;;;;;;;;15.50;13.50;;;;;17.71;55.46;101101.09;4942344;28;45491;-64
2022/10/30 05:52:55;;;;;;;;;16.25;14.50;;;;;17.70;55.26;101099.38;4943541;28;46118;-65
2022/10/30 05:55:21;;;;;;;;;11.50;11.25;;;;;17.71;55.54;101112.59;4931240;28;45445;-64
2022/10/30 05:57:46;;;;;;;;;17.75;12.50;;;;;17.70;55.57;101108.19;4943089;28;45567;-64
2022/10/30 06:00:12;;;;;;;;;14.75;13.50;;;;;17.63;55.48;101100.50;4942232;28;45599;-64
2022/10/30 06:02:37;;;;;;;;;14.50;10.75;;;;;17.70;55.44;101115.31;4942370;28;47140;-64
2022/10/30 06:05:03;;;;;;;;;16.25;12.00;;;;;17.69;55.35;101114.44;4943417;28;45270;-64
2022/10/30 06:07:28;;;;;;;;;25.25;21.50;;;;;17.69;55.50;101111.78;4942190;28;45472;-64
2022/10/30 06:09:53;;;;;;;;;25.50;21.50;;;;;17.69;55.56;101113.56;4943210;28;45563;-64
2022/10/30 06:12:19;;;;;;;;;15.75;13.75;;;;;17.68;55.58;101103.84;4943356;28;45745;-64
2022/10/30 06:14:44;;;;;;;;;13.00;12.00;;;;;17.68;55.53;101111.84;4943091;28;49744;-64
2022/10/30 06:17:09;;;;;;;;;13.75;11.50;;;;;17.66;55.50;101103.03;4941769;28;45246;-64
2022/10/30 06:19:34;;;;;;;;;18.50;13.75;;;;;17.64;55.50;101099.59;4943206;28;46345;-64
2022/10/30 06:22:00;;;;;;;;;15.75;13.75;;;;;17.60;55.52;101103.31;4943253;28;47390;-64
2022/10/30 06:24:25;;;;;;;;;10.50;8.25;;;;;17.61;55.74;101105.91;4941618;28;45390;-64
2022/10/30 06:26:50;;;;;;;;;15.00;15.00;;;;;17.60;55.66;101116.59;4943265;28;45322;-64
2022/10/30 06:29:16;;;;;;;;;15.25;15.25;;;;;17.59;55.68;101117.50;4942998;28;47883;-64
2022/10/30 06:31:41;;;;;;;;;18.75;14.25;;;;;17.54;55.54;101115.88;4943238;28;45424;-64
2022/10/30 06:34:06;;;;;;;;;16.50;13.75;;;;;17.55;55.83;101111.44;4943057;28;45323;-64
2022/10/30 06:36:32;;;;;;;;;14.50;12.50;;;;;17.51;55.90;101115.13;4942944;28;48683;-64
2022/10/30 06:38:57;;;;;;;;;12.00;12.00;;;;;17.49;55.97;101117.84;4942937;28;45478;-64
2022/10/30 06:41:22;;;;;;;;;15.50;12.75;;;;;17.47;55.76;101114.38;4942746;28;45634;-64
2022/10/30 06:43:47;;;;;;;;;12.25;12.00;;;;;17.46;55.65;101117.06;4941680;28;45310;-64
2022/10/30 06:46:13;;;;;;;;;13.00;11.00;;;;;17.44;55.60;101108.31;4942892;28;48303;-64
2022/10/30 06:48:38;;;;;;;;;18.50;13.25;;;;;17.45;55.82;101113.56;4942723;28;45380;-64
2022/10/30 06:51:03;;;;;;;;;19.25;13.00;;;;;17.42;55.68;101107.50;4942913;28;45283;-64
2022/10/30 06:53:29;;;;;;;;;13.00;11.25;;;;;17.38;56.00;101110.28;4942925;28;45293;-63
2022/10/30 06:56:02;;;;;;;;;15.00;15.00;;;;;17.42;55.96;101115.47;4941520;28;45271;-64
2022/10/30 06:58:28;;;;;;;;;14.75;10.75;;;;;17.42;55.74;101118.13;4942672;28;45440;-64
2022/10/30 07:00:54;;;;;;;;;14.25;10.75;;;;;17.41;56.10;101119.91;4942695;28;46274;-64
2022/10/30 07:03:20;;;;;;;;;14.75;12.25;;;;;17.41;55.71;101121.69;4942590;28;45246;-63
2022/10/30 07:05:46;;;;;;;;;13.75;13.00;;;;;17.41;55.77;101127.91;4942756;28;45257;-63
2022/10/30 07:08:11;;;;;;;;;14.00;13.25;;;;;17.40;55.84;101134.13;4942839;28;45454;-64
2022/10/30 07:10:37;;;;;;;;;12.75;11.75;;;;;17.38;55.71;101134.19;4942194;28;45985;-63
2022/10/30 07:13:02;;;;;;;;;13.75;10.75;;;;;17.38;55.86;101143.91;4942448;28;45222;-63
2022/10/30 07:15:28;;;;;;;;;11.75;11.75;;;;;17.38;56.06;101128.00;4941393;28;45357;-64
2022/10/30 07:17:58;;;;;;;;;14.50;10.50;;;;;17.38;55.92;101120.91;4942550;28;45205;-63
2022/10/30 07:20:26;;;;;;;;;15.50;11.25;;;;;17.37;56.16;101123.59;4942306;28;45343;-63
2022/10/30 07:22:52;;;;;;;;;16.25;14.00;;;;;17.36;55.65;101117.44;4942246;28;45161;-63
2022/10/30 07:25:17;;;;;;;;;10.75;9.25;;;;;17.35;56.10;101115.69;4941041;28;45489;-63
2022/10/30 07:27:48;;;;;;;;;16.50;13.50;;;;;17.37;56.19;101120.94;4942136;28;45498;-63
2022/10/30 07:30:15;;;;;;;;;13.25;13.25;;;;;17.36;55.95;101113.91;4942228;28;46359;-63
2022/10/30 07:32:42;;;;;;;;;12.75;12.75;;;;;17.33;56.09;101111.34;4942182;28;45267;-64
2022/10/30 07:35:09;;;;;;;;;13.00;12.00;;;;;17.32;56.10;101101.66;4942274;28;45293;-63
2022/10/30 07:37:35;;;;;;;;;13.00;13.00;;;;;17.33;56.25;101108.69;4941997;28;45398;-63
2022/10/30 07:40:00;;;;;;;;;13.75;9.75;;;;;17.31;56.11;101113.22;4941831;28;45328;-63
2022/10/30 07:42:25;;;;;;;;;9.75;8.00;;;;;17.32;56.13;101121.13;4941550;28;55174;-63
2022/10/30 07:44:51;;;;;;;;;14.75;13.50;;;;;17.31;56.04;101122.03;4942192;28;45386;-63
2022/10/30 07:47:16;;;;;;;;;14.75;12.75;;;;;17.33;56.03;101122.88;4941596;28;46959;-63
2022/10/30 07:49:42;;;;;;;;;13.25;11.25;;;;;17.35;56.18;101123.66;4941902;28;48462;-63
2022/10/30 07:52:07;;;;;;;;;10.50;10.50;;;;;17.36;56.18;101124.53;4940594;28;45506;-62
2022/10/30 07:54:32;;;;;;;;;12.50;12.50;;;;;17.38;56.19;101122.66;4941903;28;45778;-62
2022/10/30 07:56:58;;;;;;;;;13.25;11.50;;;;;17.37;56.13;101124.47;4941620;28;45534;-63
2022/10/30 07:59:24;;;;;;;;;12.75;12.25;;;;;17.42;56.40;101136.72;4941839;28;45251;-62
2022/10/30 08:01:50;;;;;;;;;10.50;10.50;;;;;17.45;56.21;101136.63;4941142;28;45271;-63
2022/10/30 08:04:15;;;;;;;;;15.25;14.25;;;;;17.45;56.30;101129.50;4941980;28;45372;-63
2022/10/30 08:06:41;;;;;;;;;11.75;11.75;;;;;17.47;56.11;101109.06;4941531;28;45516;-63
2022/10/30 08:09:06;;;;;;;;;15.00;11.25;;;;;17.47;56.52;101114.38;4941606;28;46137;-64
2022/10/30 08:11:32;;;;;;;;;9.50;9.50;;;;;17.50;56.32;101121.38;4941251;28;45196;-63
2022/10/30 08:13:58;;;;;;;;;13.00;10.00;;;;;17.54;56.35;101130.94;4940426;28;45341;-64
2022/10/30 08:16:24;;;;;;;;;11.25;8.75;;;;;17.56;56.18;101137.09;4940066;28;45523;-64
2022/10/30 08:18:49;;;;;;;;;9.00;7.25;;;;;17.59;56.30;101154.72;4941369;28;46198;-64
2022/10/30 08:21:15;;;;;;;;;15.50;11.25;;;;;17.58;56.17;101155.63;4941526;28;45318;-64
2022/10/30 08:23:40;;;;;;;;;14.75;12.50;;;;;17.61;56.19;101168.78;4941796;28;45289;-64
2022/10/30 08:26:05;;;;;;;;;8.25;5.50;;;;;17.64;56.48;101164.22;4941098;28;45455;-64
2022/10/30 08:28:31;;;;;;;;;6.50;5.00;;;;;17.67;56.38;101168.56;4941453;28;46067;-64
2022/10/30 08:30:57;;;;;;;;;15.50;10.75;;;;;17.67;56.42;101176.53;4941152;28;45336;-63
2022/10/30 08:33:23;;;;;;;;;11.25;9.50;;;;;17.67;56.38;101182.72;4940405;28;45312;-63
2022/10/30 08:35:55;;;;;;;;;10.25;10.25;;;;;17.61;56.26;101169.66;4941174;28;45221;-63
2022/10/30 08:38:21;;;;;;;;;13.00;11.25;;;;;17.71;56.21;101184.34;4941463;28;46228;-63
2022/10/30 08:40:46;;;;;;;;;14.00;10.00;;;;;17.77;56.16;101188.53;4939447;28;45327;-63
2022/10/30 08:43:12;;;;;;;;;13.50;11.00;;;;;17.77;56.20;101185.88;4941528;28;45302;-64
2022/10/30 08:45:38;;;;;;;;;8.50;8.50;;;;;17.81;56.45;101181.34;4941283;28;45315;-63
2022/10/30 08:48:05;;;;;;;;;12.00;11.00;;;;;17.81;56.40;101191.97;4941035;28;46049;-63
2022/10/30 08:50:32;;;;;;;;;11.25;10.75;;;;;17.83;56.39;101182.16;4941209;28;45299;-64
2022/10/30 08:53:06;;;;;;;;;10.75;10.00;;;;;17.87;56.29;101189.97;4941547;28;45429;-63
2022/10/30 08:55:32;;;;;;;;;11.75;11.75;;;;;17.92;55.98;101188.91;4939497;28;45488;-63
2022/10/30 08:57:58;;;;;;;;;11.75;10.00;;;;;17.92;55.92;101187.09;4940977;28;45306;-63
2022/10/30 09:00:24;;;;;;;;;15.50;10.00;;;;;17.96;56.31;101182.56;4940998;28;45405;-63
2022/10/30 09:02:50;;;;;;;;;12.00;11.25;;;;;17.99;55.97;101185.13;4941206;28;45401;-63
2022/10/30 09:05:16;;;;;;;;;12.75;12.75;;;;;18.02;56.21;101180.56;4940939;28;45262;-63
2022/10/30 09:07:41;;;;;;;;;13.75;11.50;;;;;18.05;55.94;101174.28;4940792;28;45429;-63
2022/10/30 09:10:06;;;;;;;;;12.75;10.50;;;;;18.10;56.13;101182.03;4940624;28;45421;-63
2022/10/30 09:12:32;;;;;;;;;14.75;12.75;;;;;18.14;56.01;101179.22;4941401;28;45554;-63
2022/10/30 09:14:57;;;;;;;;;13.50;10.25;;;;;18.16;55.83;101182.69;4944247;28;45255;-63
2022/10/30 09:17:23;;;;;;;;;12.75;10.75;;;;;18.21;55.93;101189.63;4943773;28;54516;-63
2022/10/30 09:19:48;;;;;;;;;15.00;10.75;;;;;18.22;56.23;101180.72;4942916;28;45333;-63
2022/10/30 09:22:13;;;;;;;;;10.75;9.75;;;;;18.29;56.18;101193.72;4944307;28;45284;-63
2022/10/30 09:24:39;;;;;;;;;13.25;12.00;;;;;18.34;56.07;101199.72;4943995;28;45167;-63
2022/10/30 09:27:05;;;;;;;;;12.50;10.25;;;;;18.40;55.81;101195.97;4943822;28;45180;-63
2022/10/30 09:29:30;;;;;;;;;14.50;13.25;;;;;18.48;55.54;101203.63;4943949;28;45480;-63
2022/10/30 09:31:56;;;;;;;;;15.00;12.50;;;;;18.53;56.04;101201.66;4944219;28;45441;-63
2022/10/30 09:34:21;;;;;;;;;17.50;11.50;;;;;18.58;56.10;101214.75;4943947;28;45326;-63
2022/10/30 09:36:48;;;;;;;;;13.50;10.00;;;;;18.64;55.64;101207.41;4943822;28;45179;-64
2022/10/30 09:39:14;;;;;;;;;17.50;14.00;;;;;18.73;55.80;101202.63;4943722;28;45338;-64
2022/10/30 09:42:00;;;;;;;;;13.25;11.25;;;;;18.79;55.48;101203.25;4943856;28;45390;-64
2022/10/30 09:44:47;;;;;;;;;12.50;11.75;;;;;18.89;55.87;101200.19;4944035;28;45787;-64
2022/10/30 09:47:19;;;;;;;;;12.50;11.75;;;;;18.94;55.52;101204.44;4943359;28;45726;-64
2022/10/30 09:49:56;;;;;;;;;11.75;10.00;;;;;19.00;55.52;101212.19;4943689;28;45374;-64
2022/10/30 09:52:38;;;;;;;;;12.50;10.75;;;;;19.09;55.28;101212.69;4943671;28;45305;-64
2022/10/30 09:55:28;;;;;;;;;14.25;11.25;;;;;19.19;55.33;101218.50;4943440;28;45281;-64
2022/10/30 09:57:59;;;;;;;;;13.75;11.00;;;;;19.27;55.75;101224.34;4943302;28;46166;-65
2022/10/30 10:00:41;;;;;;;;;13.00;11.25;;;;;19.36;55.06;101217.75;4943351;28;45318;-64
2022/10/30 10:03:23;;;;;;;;;9.75;9.00;;;;;19.42;55.38;101218.38;4943585;28;45238;-64
2022/10/30 10:05:56;;;;;;;;;12.25;10.50;;;;;19.47;54.88;101203.06;4943378;28;45472;-64
2022/10/30 10:08:59;;;;;;;;;12.25;8.50;;;;;19.58;55.15;101215.03;4943167;28;45398;-64
2022/10/30 10:11:29;;;;;;;;;10.00;8.75;;;;;19.62;54.90;101213.94;4936286;28;45265;-64
2022/10/30 10:14:03;;;;;;;;;13.75;8.75;;;;;19.62;55.07;101205.97;4942097;28;45435;-64
2022/10/30 10:16:35;;;;;;;;;11.00;9.50;;;;;19.66;55.12;101218.22;4943018;28;45250;-64
2022/10/30 10:19:19;;;;;;;;;13.50;9.00;;;;;19.74;54.41;101224.06;4941785;28;46208;-63
2022/10/30 10:21:59;;;;;;;;;15.50;12.00;;;;;19.83;54.74;101213.97;4931714;28;45271;-64
2022/10/30 10:24:31;;;;;;;;;10.75;10.25;;;;;19.88;54.37;101211.97;4942538;28;45312;-63
2022/10/30 10:27:00;;;;;;;;;10.00;10.00;;;;;19.94;54.67;101214.34;4943162;28;45310;-63
2022/10/30 10:29:45;;;;;;;;;11.50;8.00;;;;;20.01;54.59;101205.09;4943027;28;46376;-63
2022/10/30 10:32:35;;;;;;;;;10.75;8.25;;;;;20.11;54.55;101205.53;4932187;28;45539;-63
2022/10/30 10:35:21;;;;;;;;;14.25;11.50;;;;;20.19;54.20;101191.84;4943266;28;45312;-64
2022/10/30 10:38:05;;;;;;;;;16.25;13.00;;;;;20.25;54.14;101189.75;4942981;28;45477;-63
2022/10/30 10:40:49;;;;;;;;;12.00;11.25;;;;;20.32;53.94;101195.66;4941251;28;47361;-63
2022/10/30 10:43:32;;;;;;;;;11.00;9.25;;;;;20.37;54.36;101204.31;4942917;28;45341;-63
2022/10/30 10:46:12;;;;;;;;;12.00;9.50;;;;;20.41;53.59;101205.88;4943124;28;45239;-63
2022/10/30 10:48:44;;;;;;;;;11.75;10.00;;;;;20.40;53.53;101211.28;4942708;28;45457;-63
2022/10/30 10:51:18;;;;;;;;;14.50;12.50;;;;;20.44;53.98;101229.78;4942905;28;45359;-63
2022/10/30 10:53:47;;;;;;;;;11.75;8.25;;;;;20.48;53.44;101243.84;4942660;28;45385;-63
2022/10/30 10:56:13;;;;;;;;;14.75;10.75;;;;;20.46;53.77;101241.25;4942697;28;45420;-63
2022/10/30 10:58:43;;;;;;;;;17.50;12.25;;;;;20.51;53.31;101248.16;4942564;28;45321;-63
2022/10/30 11:01:15;;;;;;;;;11.00;11.00;;;;;20.52;53.57;101249.91;4942631;28;47867;-63
2022/10/30 11:04:05;;;;;;;;;10.00;10.00;;;;;20.54;53.25;101240.00;4942438;28;45242;-63
2022/10/30 11:06:43;;;;;;;;;9.25;8.00;;;;;20.57;53.15;101239.84;4938585;28;45402;-64
2022/10/30 11:09:15;;;;;;;;;14.50;11.75;;;;;20.58;53.11;101239.78;4942400;28;45204;-63
2022/10/30 11:11:43;;;;;;;;;11.00;10.25;;;;;20.62;53.47;101251.19;4942336;28;46690;-63
2022/10/30 11:14:18;;;;;;;;;11.75;10.00;;;;;20.66;53.13;101259.91;4942501;28;45278;-63